Aérodrome :
LOGIN :

S'inscrire | Disclaimer

   EN    FR    IT 

 










Légende :    VFR   VFR Marginal   IFR   IFR Intensif   IFR Très Intensif
Visi : 
Plafond : 
>= 8 km
>= 3000ft
5 à 8 km
1000 à 3000 ft
1500m à 5 km
500 à 1000 ft
800 à 1500m
200 à 500 ft
< 800m
< 200 ft
Symboles :   Orages  Brouillard  Fortes neiges  Fortes précipitations  Vent > 20 kt
SIGMETs :   Divers  Orages  Givrage  Turbulence  Onde Orograph.  Cendres Volcan.







- Altitude de l'aérodrome : 184 ft
- Code IATA : BRU


EBBR - Bruxelles

DERNIER METAR :
  • 121050Z 06001KT 3000 VCFG BR NSC 02/01 Q1025 BECMG 6000 NSW

METARs EXPIRÉS :
  • 121020Z VRB01KT 2800 VCFG BR FEW002 02/02 Q1025 BECMG 6000 NSW
  • 120950Z 08002KT 3500 1500N VCFG BR FEW001 02/01 Q1026 BECMG 6000 NSW
  • 120920Z 10003KT 6000 2800N VCFG BR NSC 02/01 Q1025 BECMG 6000 NSW
  • 120850Z 10003KT 6000 2800N VCFG BR NSC 01/01 Q1025 NOSIG

TAF TAF EBBR
Valide du 12 à 12h jusqu'au 13 à 18h UTC


121110Z 1212/1318 07005KT 6000 SCT004
BECMG 1222/1224 4000 BR
PROB30
TEMPO 1302/1309 0300 FZFG VV002
BECMG 1309/1311 7000 NSW
Pas de NOTAMs connus pour ce terrain.



MET'MAP, la Météo Aéronautique d'un coup d'oeil ! - Copyright ORBIFLY Décembre 2007 - Disclaimer

ORBIFLY MET'MAP TEAM :

Programmation & Développement : Alexandra Zaïnal
Conception & Développement : Baudouin d'Aumeries
Co-Programmation & Développement : Marc-Olivier Méhu
Soutien technique & logistique : Manuel Goepfert

Contact : metmap@orbifly.com




SOURCES & CREDITS :

   NOAA